sensor_id;sensor_type;location;lat;lon;timestamp;P1;durP1;ratioP1;P2;durP2;ratioP2
44824;SDS011;30542;47.928;2.138;2022-12-07T00:03:01;4.27;;;3.87;;
44824;SDS011;30542;47.928;2.138;2022-12-07T00:08:01;4.53;;;4.00;;
44824;SDS011;30542;47.928;2.138;2022-12-07T00:13:02;3.97;;;3.50;;
44824;SDS011;30542;47.928;2.138;2022-12-07T00:18:02;5.18;;;3.47;;
44824;SDS011;30542;47.928;2.138;2022-12-07T00:23:03;4.55;;;3.80;;
44824;SDS011;30542;47.928;2.138;2022-12-07T00:28:03;4.07;;;3.67;;
44824;SDS011;30542;47.928;2.138;2022-12-07T00:33:04;4.45;;;4.05;;
44824;SDS011;30542;47.928;2.138;2022-12-07T00:38:04;4.00;;;3.70;;
44824;SDS011;30542;47.928;2.138;2022-12-07T00:43:04;3.37;;;3.07;;
44824;SDS011;30542;47.928;2.138;2022-12-07T00:48:05;4.00;;;3.67;;
44824;SDS011;30542;47.928;2.138;2022-12-07T00:53:05;4.10;;;3.70;;
44824;SDS011;30542;47.928;2.138;2022-12-07T00:58:05;3.93;;;3.53;;
44824;SDS011;30542;47.928;2.138;2022-12-07T01:03:06;4.03;;;3.63;;
44824;SDS011;30542;47.928;2.138;2022-12-07T01:08:09;3.35;;;3.05;;
44824;SDS011;30542;47.928;2.138;2022-12-07T01:13:09;4.10;;;3.70;;
44824;SDS011;30542;47.928;2.138;2022-12-07T01:18:10;3.63;;;3.33;;
44824;SDS011;30542;47.928;2.138;2022-12-07T01:23:11;3.88;;;2.95;;
44824;SDS011;30542;47.928;2.138;2022-12-07T01:28:11;4.30;;;3.90;;
44824;SDS011;30542;47.928;2.138;2022-12-07T01:33:12;3.23;;;2.93;;
44824;SDS011;30542;47.928;2.138;2022-12-07T01:38:12;3.60;;;3.30;;
44824;SDS011;30542;47.928;2.138;2022-12-07T01:43:18;3.50;;;3.20;;
44824;SDS011;30542;47.928;2.138;2022-12-07T01:48:27;3.72;;;3.20;;
44824;SDS011;30542;47.928;2.138;2022-12-07T01:53:30;3.47;;;2.88;;
44824;SDS011;30542;47.928;2.138;2022-12-07T01:58:36;3.67;;;3.38;;
44824;SDS011;30542;47.928;2.138;2022-12-07T02:03:41;3.65;;;3.28;;
44824;SDS011;30542;47.928;2.138;2022-12-07T02:08:43;3.83;;;3.45;;
44824;SDS011;30542;47.928;2.138;2022-12-07T02:13:44;3.50;;;3.00;;
44824;SDS011;30542;47.928;2.138;2022-12-07T02:35:04;3.42;;;2.75;;
44824;SDS011;30542;47.928;2.138;2022-12-07T02:40:26;3.13;;;2.85;;
44824;SDS011;30542;47.928;2.138;2022-12-07T02:45:28;2.70;;;2.50;;
44824;SDS011;30542;47.928;2.138;2022-12-07T02:50:30;3.35;;;3.05;;
44824;SDS011;30542;47.928;2.138;2022-12-07T02:55:33;3.53;;;2.73;;
44824;SDS011;30542;47.928;2.138;2022-12-07T03:00:43;3.22;;;2.90;;
44824;SDS011;30542;47.928;2.138;2022-12-07T03:06:06;3.35;;;3.05;;
44824;SDS011;30542;47.928;2.138;2022-12-07T03:11:16;2.55;;;2.35;;
44824;SDS011;30542;47.928;2.138;2022-12-07T03:16:31;3.38;;;2.80;;
44824;SDS011;30542;47.928;2.138;2022-12-07T03:21:39;2.97;;;2.78;;
44824;SDS011;30542;47.928;2.138;2022-12-07T03:26:44;3.03;;;2.83;;
44824;SDS011;30542;47.928;2.138;2022-12-07T03:32:03;2.58;;;2.38;;
44824;SDS011;30542;47.928;2.138;2022-12-07T03:37:18;2.53;;;2.33;;
44824;SDS011;30542;47.928;2.138;2022-12-07T03:42:42;2.83;;;2.63;;
44824;SDS011;30542;47.928;2.138;2022-12-07T03:58:17;2.58;;;2.38;;
44824;SDS011;30542;47.928;2.138;2022-12-07T04:03:20;2.00;;;1.90;;
44824;SDS011;30542;47.928;2.138;2022-12-07T04:08:21;2.28;;;2.05;;
44824;SDS011;30542;47.928;2.138;2022-12-07T04:13:21;2.40;;;2.20;;
44824;SDS011;30542;47.928;2.138;2022-12-07T04:18:22;2.40;;;2.20;;
44824;SDS011;30542;47.928;2.138;2022-12-07T04:23:22;2.00;;;1.90;;
44824;SDS011;30542;47.928;2.138;2022-12-07T04:28:23;2.00;;;1.90;;
44824;SDS011;30542;47.928;2.138;2022-12-07T04:33:23;1.73;;;1.63;;
44824;SDS011;30542;47.928;2.138;2022-12-07T04:38:23;1.67;;;1.57;;
44824;SDS011;30542;47.928;2.138;2022-12-07T04:43:24;2.47;;;2.27;;
44824;SDS011;30542;47.928;2.138;2022-12-07T04:48:24;2.10;;;2.00;;
44824;SDS011;30542;47.928;2.138;2022-12-07T04:53:24;2.40;;;1.90;;
44824;SDS011;30542;47.928;2.138;2022-12-07T04:58:25;2.10;;;2.00;;
44824;SDS011;30542;47.928;2.138;2022-12-07T05:03:25;1.90;;;1.80;;
44824;SDS011;30542;47.928;2.138;2022-12-07T05:08:26;2.30;;;2.10;;
44824;SDS011;30542;47.928;2.138;2022-12-07T05:13:26;2.30;;;2.10;;
44824;SDS011;30542;47.928;2.138;2022-12-07T05:18:27;1.75;;;1.50;;
44824;SDS011;30542;47.928;2.138;2022-12-07T05:23:27;2.75;;;2.30;;
44824;SDS011;30542;47.928;2.138;2022-12-07T05:28:28;2.20;;;1.73;;
44824;SDS011;30542;47.928;2.138;2022-12-07T05:33:28;2.17;;;2.00;;
44824;SDS011;30542;47.928;2.138;2022-12-07T05:38:28;2.27;;;2.07;;
44824;SDS011;30542;47.928;2.138;2022-12-07T05:43:29;2.40;;;1.73;;
44824;SDS011;30542;47.928;2.138;2022-12-07T05:48:30;2.58;;;1.77;;
44824;SDS011;30542;47.928;2.138;2022-12-07T05:53:31;1.80;;;1.70;;
44824;SDS011;30542;47.928;2.138;2022-12-07T05:58:31;1.63;;;1.53;;
44824;SDS011;30542;47.928;2.138;2022-12-07T06:03:50;2.10;;;1.90;;
44824;SDS011;30542;47.928;2.138;2022-12-07T06:08:50;2.30;;;2.00;;
44824;SDS011;30542;47.928;2.138;2022-12-07T06:13:51;2.37;;;1.73;;
44824;SDS011;30542;47.928;2.138;2022-12-07T06:18:51;1.70;;;1.57;;
44824;SDS011;30542;47.928;2.138;2022-12-07T06:23:52;2.30;;;1.80;;
44824;SDS011;30542;47.928;2.138;2022-12-07T06:28:53;1.60;;;1.50;;
44824;SDS011;30542;47.928;2.138;2022-12-07T06:33:59;1.77;;;1.50;;
44824;SDS011;30542;47.928;2.138;2022-12-07T06:39:01;1.80;;;1.70;;
44824;SDS011;30542;47.928;2.138;2022-12-07T06:44:02;1.85;;;1.63;;
44824;SDS011;30542;47.928;2.138;2022-12-07T06:49:04;1.77;;;1.67;;
44824;SDS011;30542;47.928;2.138;2022-12-07T06:54:05;2.47;;;2.25;;
44824;SDS011;30542;47.928;2.138;2022-12-07T06:59:06;6.93;;;3.10;;
44824;SDS011;30542;47.928;2.138;2022-12-07T07:04:07;7.93;;;3.88;;
44824;SDS011;30542;47.928;2.138;2022-12-07T07:09:07;17.10;;;5.15;;
44824;SDS011;30542;47.928;2.138;2022-12-07T07:14:09;10.48;;;5.10;;
44824;SDS011;30542;47.928;2.138;2022-12-07T07:19:09;10.20;;;4.57;;
44824;SDS011;30542;47.928;2.138;2022-12-07T07:24:10;12.82;;;4.55;;
44824;SDS011;30542;47.928;2.138;2022-12-07T07:29:10;7.73;;;4.13;;
44824;SDS011;30542;47.928;2.138;2022-12-07T07:34:10;7.00;;;3.90;;
44824;SDS011;30542;47.928;2.138;2022-12-07T07:39:11;8.93;;;3.50;;
44824;SDS011;30542;47.928;2.138;2022-12-07T07:44:12;9.43;;;3.55;;
44824;SDS011;30542;47.928;2.138;2022-12-07T07:49:13;8.63;;;3.58;;
44824;SDS011;30542;47.928;2.138;2022-12-07T07:54:13;6.77;;;3.20;;
44824;SDS011;30542;47.928;2.138;2022-12-07T07:59:14;6.38;;;2.70;;
44824;SDS011;30542;47.928;2.138;2022-12-07T08:04:15;4.53;;;3.60;;
44824;SDS011;30542;47.928;2.138;2022-12-07T08:09:16;5.47;;;3.60;;
44824;SDS011;30542;47.928;2.138;2022-12-07T08:14:16;6.70;;;3.93;;
44824;SDS011;30542;47.928;2.138;2022-12-07T08:19:16;13.40;;;5.37;;
44824;SDS011;30542;47.928;2.138;2022-12-07T08:24:17;13.40;;;4.97;;
44824;SDS011;30542;47.928;2.138;2022-12-07T08:29:17;17.65;;;5.20;;
44824;SDS011;30542;47.928;2.138;2022-12-07T08:34:18;17.92;;;5.88;;
44824;SDS011;30542;47.928;2.138;2022-12-07T08:39:18;17.57;;;5.13;;
44824;SDS011;30542;47.928;2.138;2022-12-07T08:44:19;21.03;;;5.60;;
44824;SDS011;30542;47.928;2.138;2022-12-07T08:49:20;14.07;;;5.10;;
44824;SDS011;30542;47.928;2.138;2022-12-07T08:54:28;17.90;;;5.07;;
44824;SDS011;30542;47.928;2.138;2022-12-07T08:59:28;12.73;;;4.78;;
44824;SDS011;30542;47.928;2.138;2022-12-07T09:04:29;64.78;;;21.85;;
44824;SDS011;30542;47.928;2.138;2022-12-07T09:09:30;54.03;;;19.27;;
44824;SDS011;30542;47.928;2.138;2022-12-07T09:14:30;28.88;;;13.45;;
44824;SDS011;30542;47.928;2.138;2022-12-07T09:19:30;28.77;;;11.97;;
44824;SDS011;30542;47.928;2.138;2022-12-07T09:24:31;23.73;;;9.90;;
44824;SDS011;30542;47.928;2.138;2022-12-07T09:29:32;22.55;;;9.38;;
44824;SDS011;30542;47.928;2.138;2022-12-07T09:34:32;20.77;;;8.87;;
44824;SDS011;30542;47.928;2.138;2022-12-07T09:39:33;17.95;;;8.45;;
44824;SDS011;30542;47.928;2.138;2022-12-07T09:44:33;14.93;;;7.68;;
44824;SDS011;30542;47.928;2.138;2022-12-07T09:49:35;18.25;;;7.70;;
44824;SDS011;30542;47.928;2.138;2022-12-07T09:54:36;14.17;;;7.17;;
44824;SDS011;30542;47.928;2.138;2022-12-07T09:59:43;16.48;;;6.60;;
44824;SDS011;30542;47.928;2.138;2022-12-07T10:04:44;13.77;;;6.53;;
44824;SDS011;30542;47.928;2.138;2022-12-07T10:09:45;12.70;;;6.18;;
44824;SDS011;30542;47.928;2.138;2022-12-07T10:15:02;10.57;;;5.60;;
44824;SDS011;30542;47.928;2.138;2022-12-07T10:25:21;10.30;;;5.28;;
44824;SDS011;30542;47.928;2.138;2022-12-07T10:30:25;10.45;;;5.10;;
44824;SDS011;30542;47.928;2.138;2022-12-07T10:35:30;8.82;;;5.05;;
44824;SDS011;30542;47.928;2.138;2022-12-07T10:40:32;9.70;;;4.97;;
44824;SDS011;30542;47.928;2.138;2022-12-07T10:45:35;8.45;;;4.68;;
44824;SDS011;30542;47.928;2.138;2022-12-07T11:01:44;6.13;;;3.58;;
44824;SDS011;30542;47.928;2.138;2022-12-07T11:33:19;5.78;;;3.47;;
44824;SDS011;30542;47.928;2.138;2022-12-07T11:38:37;4.82;;;3.38;;
44824;SDS011;30542;47.928;2.138;2022-12-07T11:43:50;5.03;;;3.45;;
44824;SDS011;30542;47.928;2.138;2022-12-07T11:54:12;4.75;;;3.08;;
44824;SDS011;30542;47.928;2.138;2022-12-07T12:04:35;3.55;;;3.10;;
44824;SDS011;30542;47.928;2.138;2022-12-07T12:15:08;3.40;;;3.10;;
44824;SDS011;30542;47.928;2.138;2022-12-07T12:25:30;26.13;;;14.43;;
44824;SDS011;30542;47.928;2.138;2022-12-07T12:30:38;31.70;;;21.75;;
44824;SDS011;30542;47.928;2.138;2022-12-07T12:35:40;24.48;;;17.38;;
44824;SDS011;30542;47.928;2.138;2022-12-07T12:40:41;18.48;;;13.07;;
44824;SDS011;30542;47.928;2.138;2022-12-07T12:45:42;16.52;;;10.48;;
44824;SDS011;30542;47.928;2.138;2022-12-07T12:50:43;10.77;;;7.68;;
44824;SDS011;30542;47.928;2.138;2022-12-07T12:56:07;6.90;;;6.20;;
44824;SDS011;30542;47.928;2.138;2022-12-07T13:01:41;6.70;;;5.40;;
44824;SDS011;30542;47.928;2.138;2022-12-07T13:06:43;5.78;;;4.70;;
44824;SDS011;30542;47.928;2.138;2022-12-07T13:11:44;4.47;;;4.07;;
44824;SDS011;30542;47.928;2.138;2022-12-07T13:16:46;4.03;;;3.67;;
44824;SDS011;30542;47.928;2.138;2022-12-07T13:21:46;4.57;;;3.60;;
44824;SDS011;30542;47.928;2.138;2022-12-07T13:26:46;8.13;;;3.77;;
44824;SDS011;30542;47.928;2.138;2022-12-07T13:31:54;5.30;;;3.47;;
44824;SDS011;30542;47.928;2.138;2022-12-07T13:36:57;5.45;;;3.47;;
44824;SDS011;30542;47.928;2.138;2022-12-07T13:42:06;3.88;;;2.78;;
44824;SDS011;30542;47.928;2.138;2022-12-07T13:47:14;4.57;;;2.75;;
44824;SDS011;30542;47.928;2.138;2022-12-07T13:52:35;5.50;;;2.88;;
44824;SDS011;30542;47.928;2.138;2022-12-07T13:57:44;2.97;;;2.75;;
44824;SDS011;30542;47.928;2.138;2022-12-07T14:02:58;3.40;;;2.47;;
44824;SDS011;30542;47.928;2.138;2022-12-07T14:18:41;2.65;;;2.45;;
44824;SDS011;30542;47.928;2.138;2022-12-07T14:23:41;3.05;;;2.35;;
44824;SDS011;30542;47.928;2.138;2022-12-07T14:28:42;2.80;;;2.53;;
44824;SDS011;30542;47.928;2.138;2022-12-07T14:33:43;2.53;;;2.33;;
44824;SDS011;30542;47.928;2.138;2022-12-07T14:38:44;2.65;;;2.40;;
44824;SDS011;30542;47.928;2.138;2022-12-07T14:43:44;2.17;;;1.98;;
44824;SDS011;30542;47.928;2.138;2022-12-07T14:48:46;2.20;;;2.03;;
44824;SDS011;30542;47.928;2.138;2022-12-07T14:53:48;1.73;;;1.63;;
44824;SDS011;30542;47.928;2.138;2022-12-07T14:58:50;5.57;;;2.30;;
44824;SDS011;30542;47.928;2.138;2022-12-07T15:03:51;2.75;;;2.08;;
44824;SDS011;30542;47.928;2.138;2022-12-07T15:08:51;2.17;;;1.80;;
44824;SDS011;30542;47.928;2.138;2022-12-07T15:13:51;2.17;;;1.97;;
44824;SDS011;30542;47.928;2.138;2022-12-07T15:19:22;1.85;;;1.70;;
44824;SDS011;30542;47.928;2.138;2022-12-07T15:24:25;3.92;;;1.90;;
44824;SDS011;30542;47.928;2.138;2022-12-07T15:29:26;4.93;;;2.38;;
44824;SDS011;30542;47.928;2.138;2022-12-07T15:34:27;4.38;;;2.03;;
44824;SDS011;30542;47.928;2.138;2022-12-07T15:39:28;3.30;;;1.98;;
44824;SDS011;30542;47.928;2.138;2022-12-07T15:44:28;2.23;;;1.37;;
44824;SDS011;30542;47.928;2.138;2022-12-07T15:49:47;3.17;;;1.90;;
44824;SDS011;30542;47.928;2.138;2022-12-07T15:54:47;2.60;;;2.00;;
44824;SDS011;30542;47.928;2.138;2022-12-07T15:59:48;2.70;;;1.75;;
44824;SDS011;30542;47.928;2.138;2022-12-07T16:04:49;2.10;;;1.47;;
44824;SDS011;30542;47.928;2.138;2022-12-07T16:09:50;1.80;;;1.63;;
44824;SDS011;30542;47.928;2.138;2022-12-07T16:14:50;4.15;;;1.65;;
44824;SDS011;30542;47.928;2.138;2022-12-07T16:19:51;5.67;;;1.63;;
44824;SDS011;30542;47.928;2.138;2022-12-07T16:24:52;2.55;;;1.73;;
44824;SDS011;30542;47.928;2.138;2022-12-07T16:29:52;3.30;;;1.40;;
44824;SDS011;30542;47.928;2.138;2022-12-07T16:34:53;2.17;;;1.63;;
44824;SDS011;30542;47.928;2.138;2022-12-07T16:39:53;1.50;;;1.40;;
44824;SDS011;30542;47.928;2.138;2022-12-07T16:44:53;1.67;;;1.52;;
44824;SDS011;30542;47.928;2.138;2022-12-07T16:49:54;1.87;;;1.63;;
44824;SDS011;30542;47.928;2.138;2022-12-07T16:54:54;5.23;;;1.77;;
44824;SDS011;30542;47.928;2.138;2022-12-07T16:59:55;2.83;;;2.07;;
44824;SDS011;30542;47.928;2.138;2022-12-07T17:04:55;3.53;;;2.23;;
44824;SDS011;30542;47.928;2.138;2022-12-07T17:09:55;3.43;;;1.80;;
44824;SDS011;30542;47.928;2.138;2022-12-07T17:14:56;2.83;;;1.90;;
44824;SDS011;30542;47.928;2.138;2022-12-07T17:20:14;2.40;;;1.70;;
44824;SDS011;30542;47.928;2.138;2022-12-07T17:25:16;2.22;;;1.63;;
44824;SDS011;30542;47.928;2.138;2022-12-07T17:30:17;2.20;;;2.00;;
44824;SDS011;30542;47.928;2.138;2022-12-07T17:35:18;2.08;;;1.70;;
44824;SDS011;30542;47.928;2.138;2022-12-07T17:40:18;2.33;;;1.97;;
44824;SDS011;30542;47.928;2.138;2022-12-07T17:45:18;2.50;;;2.10;;
44824;SDS011;30542;47.928;2.138;2022-12-07T17:50:19;2.10;;;1.90;;
44824;SDS011;30542;47.928;2.138;2022-12-07T17:55:39;1.63;;;1.52;;
44824;SDS011;30542;47.928;2.138;2022-12-07T18:00:40;2.25;;;1.77;;
44824;SDS011;30542;47.928;2.138;2022-12-07T18:05:42;2.47;;;2.28;;
44824;SDS011;30542;47.928;2.138;2022-12-07T18:10:43;2.15;;;1.95;;
44824;SDS011;30542;47.928;2.138;2022-12-07T18:15:43;1.80;;;1.70;;
44824;SDS011;30542;47.928;2.138;2022-12-07T18:20:44;2.03;;;1.90;;
44824;SDS011;30542;47.928;2.138;2022-12-07T18:25:50;2.13;;;1.80;;
44824;SDS011;30542;47.928;2.138;2022-12-07T18:30:52;5.27;;;2.17;;
44824;SDS011;30542;47.928;2.138;2022-12-07T18:35:53;2.30;;;2.03;;
44824;SDS011;30542;47.928;2.138;2022-12-07T18:40:53;3.03;;;1.90;;
44824;SDS011;30542;47.928;2.138;2022-12-07T18:45:54;2.40;;;1.90;;
44824;SDS011;30542;47.928;2.138;2022-12-07T18:50:58;3.30;;;1.73;;
44824;SDS011;30542;47.928;2.138;2022-12-07T18:56:02;1.80;;;1.52;;
44824;SDS011;30542;47.928;2.138;2022-12-07T19:01:04;3.58;;;2.17;;
44824;SDS011;30542;47.928;2.138;2022-12-07T19:06:05;2.63;;;1.90;;
44824;SDS011;30542;47.928;2.138;2022-12-07T19:11:06;2.15;;;1.90;;
44824;SDS011;30542;47.928;2.138;2022-12-07T19:16:26;3.10;;;1.80;;
44824;SDS011;30542;47.928;2.138;2022-12-07T19:21:26;2.87;;;2.23;;
44824;SDS011;30542;47.928;2.138;2022-12-07T19:26:27;2.42;;;2.17;;
44824;SDS011;30542;47.928;2.138;2022-12-07T19:31:27;2.28;;;2.08;;
44824;SDS011;30542;47.928;2.138;2022-12-07T19:36:28;2.70;;;2.00;;
44824;SDS011;30542;47.928;2.138;2022-12-07T19:41:28;2.80;;;2.23;;
44824;SDS011;30542;47.928;2.138;2022-12-07T19:46:34;2.53;;;2.33;;
44824;SDS011;30542;47.928;2.138;2022-12-07T19:51:35;3.67;;;2.22;;
44824;SDS011;30542;47.928;2.138;2022-12-07T19:56:36;2.97;;;2.67;;
44824;SDS011;30542;47.928;2.138;2022-12-07T20:01:36;3.22;;;2.15;;
44824;SDS011;30542;47.928;2.138;2022-12-07T20:06:39;2.88;;;2.25;;
44824;SDS011;30542;47.928;2.138;2022-12-07T20:11:39;4.18;;;2.42;;
44824;SDS011;30542;47.928;2.138;2022-12-07T20:16:58;2.65;;;1.95;;
44824;SDS011;30542;47.928;2.138;2022-12-07T20:22:00;3.00;;;2.22;;
44824;SDS011;30542;47.928;2.138;2022-12-07T20:27:00;4.60;;;2.47;;
44824;SDS011;30542;47.928;2.138;2022-12-07T20:32:01;2.58;;;2.38;;
44824;SDS011;30542;47.928;2.138;2022-12-07T20:37:01;2.78;;;2.13;;
44824;SDS011;30542;47.928;2.138;2022-12-07T20:42:02;2.80;;;2.55;;
44824;SDS011;30542;47.928;2.138;2022-12-07T20:47:21;2.80;;;2.28;;
44824;SDS011;30542;47.928;2.138;2022-12-07T20:52:21;3.63;;;2.87;;
44824;SDS011;30542;47.928;2.138;2022-12-07T20:57:21;3.27;;;2.87;;
44824;SDS011;30542;47.928;2.138;2022-12-07T21:02:22;3.88;;;2.92;;
44824;SDS011;30542;47.928;2.138;2022-12-07T21:07:23;3.30;;;2.47;;
44824;SDS011;30542;47.928;2.138;2022-12-07T21:12:24;3.75;;;3.45;;
44824;SDS011;30542;47.928;2.138;2022-12-07T21:17:24;3.20;;;2.90;;
44824;SDS011;30542;47.928;2.138;2022-12-07T21:22:25;3.15;;;2.78;;
44824;SDS011;30542;47.928;2.138;2022-12-07T21:27:26;4.13;;;3.20;;
44824;SDS011;30542;47.928;2.138;2022-12-07T21:32:26;4.07;;;3.20;;
44824;SDS011;30542;47.928;2.138;2022-12-07T21:37:26;3.28;;;2.97;;
44824;SDS011;30542;47.928;2.138;2022-12-07T21:42:27;3.27;;;2.97;;
44824;SDS011;30542;47.928;2.138;2022-12-07T21:47:27;3.60;;;3.23;;
44824;SDS011;30542;47.928;2.138;2022-12-07T21:52:28;3.90;;;3.20;;
44824;SDS011;30542;47.928;2.138;2022-12-07T21:57:28;4.13;;;3.60;;
44824;SDS011;30542;47.928;2.138;2022-12-07T22:02:31;4.35;;;3.55;;
44824;SDS011;30542;47.928;2.138;2022-12-07T22:07:32;4.27;;;3.87;;
44824;SDS011;30542;47.928;2.138;2022-12-07T22:12:32;3.50;;;3.20;;
44824;SDS011;30542;47.928;2.138;2022-12-07T22:17:33;3.90;;;3.50;;
44824;SDS011;30542;47.928;2.138;2022-12-07T22:22:33;3.67;;;3.33;;
44824;SDS011;30542;47.928;2.138;2022-12-07T22:27:33;2.90;;;2.70;;
44824;SDS011;30542;47.928;2.138;2022-12-07T22:32:34;3.53;;;3.20;;
44824;SDS011;30542;47.928;2.138;2022-12-07T22:37:34;3.60;;;3.30;;
44824;SDS011;30542;47.928;2.138;2022-12-07T22:42:35;3.83;;;3.43;;
44824;SDS011;30542;47.928;2.138;2022-12-07T22:47:35;3.63;;;3.20;;
44824;SDS011;30542;47.928;2.138;2022-12-07T22:52:36;3.72;;;3.08;;
44824;SDS011;30542;47.928;2.138;2022-12-07T22:57:36;3.50;;;3.20;;
44824;SDS011;30542;47.928;2.138;2022-12-07T23:02:36;4.93;;;3.17;;
44824;SDS011;30542;47.928;2.138;2022-12-07T23:07:37;3.40;;;3.07;;
44824;SDS011;30542;47.928;2.138;2022-12-07T23:12:37;3.30;;;3.00;;
44824;SDS011;30542;47.928;2.138;2022-12-07T23:17:56;4.63;;;3.25;;
44824;SDS011;30542;47.928;2.138;2022-12-07T23:22:56;3.43;;;3.13;;
44824;SDS011;30542;47.928;2.138;2022-12-07T23:27:57;4.03;;;3.63;;
44824;SDS011;30542;47.928;2.138;2022-12-07T23:32:57;4.03;;;3.40;;
44824;SDS011;30542;47.928;2.138;2022-12-07T23:37:57;3.70;;;3.33;;
44824;SDS011;30542;47.928;2.138;2022-12-07T23:42:58;4.37;;;3.90;;
44824;SDS011;30542;47.928;2.138;2022-12-07T23:47:58;4.30;;;3.90;;
44824;SDS011;30542;47.928;2.138;2022-12-07T23:52:58;4.20;;;3.80;;
44824;SDS011;30542;47.928;2.138;2022-12-07T23:57:59;4.43;;;3.77;;
